Time;durP1;ratioP1;P1;durP2;ratioP2;P2;SDS_P1;SDS_P2;PMS_P1;PMS_P2;Temp;Humidity;BMP_temperature;BMP_pressure;BME280_temperature;BME280_humidity;BME280_pressure;Samples;Min_cycle;Max_cycle;Signal;HPM_P1;HPM_P2
2023/01/12 00:01:21;;;;;;;6.50;2.30;;;9.10;94.30;;;;;;5050597;28;20508;-70
2023/01/12 00:03:48;;;;;;;7.47;2.17;;;9.20;93.50;;;;;;5048649;28;20777;-67
2023/01/12 00:06:18;;;;;;;7.80;1.98;;;9.30;92.90;;;;;;5049942;28;20422;-71
2023/01/12 00:08:45;;;;;;;5.50;2.00;;;9.40;92.80;;;;;;5050356;28;20425;-70
2023/01/12 00:11:12;;;;;;;3.95;1.77;;;9.40;92.10;;;;;;5047677;28;20433;-71
2023/01/12 00:13:39;;;;;;;6.60;1.80;;;9.40;92.50;;;;;;5047114;28;20432;-69
2023/01/12 00:18:53;;;;;;;5.70;2.00;;;9.60;91.60;;;;;;5047905;28;20477;-71
2023/01/12 00:21:20;;;;;;;5.30;1.90;;;9.60;92.10;;;;;;5049280;28;20409;-71
2023/01/12 00:23:47;;;;;;;5.30;1.60;;;9.60;92.10;;;;;;5048943;28;20413;-70
2023/01/12 00:26:14;;;;;;;5.15;1.60;;;9.50;92.70;;;;;;5047215;28;20440;-69
2023/01/12 00:28:41;;;;;;;4.05;1.70;;;9.40;93.00;;;;;;5049188;28;20416;-69
2023/01/12 00:31:11;;;;;;;3.58;1.90;;;9.40;93.60;;;;;;5037308;28;20514;-69
2023/01/12 00:33:39;;;;;;;4.55;1.85;;;9.30;93.90;;;;;;5049965;28;20421;-71
2023/01/12 00:36:08;;;;;;;5.95;1.85;;;9.30;94.10;;;;;;5041537;28;20419;-70
2023/01/12 00:38:37;;;;;;;5.22;1.50;;;9.30;94.20;;;;;;5031534;28;20426;-70
2023/01/12 00:41:07;;;;;;;4.68;2.38;;;9.30;94.50;;;;;;5047938;28;20429;-70
2023/01/12 00:46:28;;;;;;;4.07;1.50;;;9.40;93.50;;;;;;5066347;28;20412;-70
2023/01/12 00:48:55;;;;;;;4.97;1.80;;;9.40;93.50;;;;;;5060646;28;20437;-73
2023/01/12 00:51:21;;;;;;;3.00;1.40;;;9.40;93.60;;;;;;5066331;28;20425;-69
2023/01/12 00:53:48;;;;;;;5.45;1.80;;;9.40;93.70;;;;;;5058327;28;20807;-69
2023/01/12 00:56:16;;;;;;;4.05;1.40;;;9.40;93.10;;;;;;5058025;28;20451;-70
2023/01/12 00:58:42;;;;;;;3.53;1.50;;;9.50;93.10;;;;;;5057321;28;20428;-70
2023/01/12 01:01:09;;;;;;;4.05;1.40;;;9.50;93.10;;;;;;5060052;28;20420;-69
2023/01/12 01:03:37;;;;;;;4.57;1.60;;;9.50;93.20;;;;;;5057454;28;21238;-70
2023/01/12 01:06:06;;;;;;;4.67;1.60;;;9.50;93.10;;;;;;5057898;28;20436;-70
2023/01/12 01:08:35;;;;;;;5.60;1.70;;;9.50;94.10;;;;;;5053650;28;20425;-72
2023/01/12 01:11:03;;;;;;;6.25;1.80;;;9.40;94.90;;;;;;5048998;28;20448;-70
2023/01/12 01:13:30;;;;;;;4.07;1.38;;;9.40;94.40;;;;;;5049121;28;20418;-71
2023/01/12 01:15:59;;;;;;;4.37;1.90;;;9.40;93.80;;;;;;5052613;28;20420;-70
2023/01/12 01:18:26;;;;;;;3.80;2.20;;;9.50;94.10;;;;;;5050733;28;20429;-71
2023/01/12 01:20:55;;;;;;;6.70;1.80;;;9.50;93.50;;;;;;5050622;28;20536;-71
2023/01/12 01:23:24;;;;;;;2.50;1.40;;;9.60;92.60;;;;;;5049027;28;20413;-69
2023/01/12 01:25:51;;;;;;;5.50;1.70;;;9.70;92.20;;;;;;5048284;28;20433;-69
2023/01/12 01:28:18;;;;;;;6.13;1.60;;;9.70;92.20;;;;;;5048993;28;20433;-70
2023/01/12 01:30:46;;;;;;;4.50;1.42;;;9.70;92.20;;;;;;5050189;28;20429;-70
2023/01/12 01:33:13;;;;;;;4.20;1.63;;;9.80;91.90;;;;;;5050715;28;20413;-71
2023/01/12 01:35:40;;;;;;;4.88;1.90;;;9.80;91.90;;;;;;5048090;28;20467;-71
2023/01/12 01:38:09;;;;;;;5.30;1.70;;;9.80;92.10;;;;;;5049358;28;20421;-71
2023/01/12 01:40:41;;;;;;;3.23;1.53;;;9.80;92.50;;;;;;5047069;28;20532;-71
2023/01/12 01:43:12;;;;;;;5.03;1.52;;;9.80;92.00;;;;;;5046870;28;20429;-70
2023/01/12 01:45:41;;;;;;;5.82;1.85;;;9.80;92.40;;;;;;5048484;28;20417;-70
2023/01/12 01:48:12;;;;;;;4.20;1.77;;;9.80;92.30;;;;;;5047430;28;20600;-71
2023/01/12 01:50:42;;;;;;;5.00;2.00;;;9.80;92.30;;;;;;5046823;28;20437;-71
2023/01/12 01:53:14;;;;;;;3.55;1.65;;;9.80;92.40;;;;;;5046788;28;20413;-68
2023/01/12 01:55:47;;;;;;;3.30;1.60;;;9.70;92.50;;;;;;5046945;28;20437;-69
2023/01/12 01:58:18;;;;;;;3.35;1.52;;;9.70;93.20;;;;;;5045762;28;20764;-68
2023/01/12 02:00:46;;;;;;;3.33;1.50;;;9.70;92.80;;;;;;5048182;28;20424;-70
2023/01/12 02:03:14;;;;;;;4.30;1.63;;;9.70;92.80;;;;;;5046920;28;20504;-70
2023/01/12 02:05:45;;;;;;;4.70;1.60;;;9.70;93.00;;;;;;5047800;28;20424;-70
2023/01/12 02:08:22;;;;;;;3.47;1.48;;;9.60;93.00;;;;;;5046805;28;21006;-70
2023/01/12 02:10:49;;;;;;;6.00;1.90;;;9.60;93.00;;;;;;5036989;28;20501;-68
2023/01/12 02:16:20;;;;;;;4.77;1.60;;;9.60;93.10;;;;;;4994449;28;20409;-68
2023/01/12 02:19:00;;;;;;;3.88;1.60;;;9.60;93.30;;;;;;5010529;28;20448;-69
2023/01/12 02:21:53;;;;;;;2.92;1.30;;;9.60;93.70;;;;;;5014300;28;20428;-71
2023/01/12 02:24:42;;;;;;;3.50;1.40;;;9.60;93.20;;;;;;5013965;28;20437;-69
2023/01/12 02:27:42;;;;;;;5.03;2.20;;;9.50;93.40;;;;;;5019876;28;20425;-70
2023/01/12 02:30:45;;;;;;;4.40;1.92;;;9.50;93.40;;;;;;4961762;28;20550;-66
2023/01/12 02:33:31;;;;;;;5.18;1.58;;;9.50;93.50;;;;;;5020255;28;20549;-69
2023/01/12 02:36:06;;;;;;;5.57;2.10;;;9.50;93.30;;;;;;5018876;28;20448;-69
2023/01/12 02:38:37;;;;;;;4.20;1.88;;;9.50;93.20;;;;;;5008770;28;20939;-67
2023/01/12 02:41:14;;;;;;;4.72;1.75;;;9.50;92.70;;;;;;5008970;28;20436;-70
2023/01/12 02:43:41;;;;;;;6.10;1.75;;;9.60;92.60;;;;;;5010112;28;20414;-71
2023/01/12 02:46:14;;;;;;;6.07;2.10;;;9.60;92.20;;;;;;5010814;28;20416;-69
2023/01/12 02:48:47;;;;;;;5.20;2.13;;;9.70;91.60;;;;;;5008412;28;20432;-69
2023/01/12 02:51:18;;;;;;;4.93;2.00;;;9.70;91.80;;;;;;5007890;28;20441;-69
2023/01/12 02:53:49;;;;;;;4.90;1.80;;;9.70;91.80;;;;;;5012273;28;20457;-68
2023/01/12 02:56:21;;;;;;;3.75;1.40;;;9.70;91.60;;;;;;5009322;28;20425;-68
2023/01/12 02:58:52;;;;;;;3.97;1.48;;;9.70;91.30;;;;;;5008281;28;20918;-69
2023/01/12 03:01:20;;;;;;;5.50;1.98;;;9.70;91.20;;;;;;5009455;28;20455;-69
2023/01/12 03:03:49;;;;;;;3.20;1.40;;;9.80;91.50;;;;;;5007437;28;20453;-68
2023/01/12 03:06:17;;;;;;;4.70;1.70;;;9.80;91.20;;;;;;5013245;28;20416;-68
2023/01/12 03:08:46;;;;;;;4.15;1.70;;;9.80;91.00;;;;;;5010002;28;20870;-70
2023/01/12 03:11:15;;;;;;;3.75;1.40;;;9.80;91.30;;;;;;5007633;28;20444;-70
2023/01/12 03:13:47;;;;;;;4.03;1.40;;;9.80;92.40;;;;;;5008023;28;20421;-70
2023/01/12 03:16:18;;;;;;;2.60;1.42;;;9.70;94.20;;;;;;5015099;28;20432;-70
2023/01/12 03:18:54;;;;;;;3.92;1.60;;;9.50;95.80;;;;;;5007294;28;20428;-70
2023/01/12 03:21:29;;;;;;;5.18;1.77;;;9.30;97.60;;;;;;5004855;28;20568;-70
2023/01/12 03:24:02;;;;;;;4.18;1.83;;;9.10;98.80;;;;;;5006518;28;20429;-68
2023/01/12 03:26:32;;;;;;;3.35;1.50;;;9.00;99.90;;;;;;5018998;28;20485;-69
2023/01/12 03:29:05;;;;;;;5.33;1.77;;;8.90;99.90;;;;;;5012202;28;20458;-70
2023/01/12 03:31:32;;;;;;;4.35;1.30;;;8.80;99.90;;;;;;5015531;28;20470;-70
2023/01/12 03:34:01;;;;;;;5.68;1.80;;;8.70;99.90;;;;;;5012396;28;20409;-68
2023/01/12 03:36:41;;;;;;;5.90;1.90;;;8.60;99.90;;;;;;5019600;28;20420;-70
2023/01/12 03:39:19;;;;;;;4.03;1.60;;;8.60;99.90;;;;;;5021772;28;20471;-69
2023/01/12 03:41:56;;;;;;;4.68;1.58;;;8.50;99.90;;;;;;5008433;23;20465;-70
2023/01/12 03:44:29;;;;;;;4.55;1.70;;;8.50;99.90;;;;;;4963319;28;20424;-72
2023/01/12 03:47:01;;;;;;;3.63;1.40;;;8.40;99.90;;;;;;4963788;28;20466;-72
2023/01/12 03:49:34;;;;;;;3.55;1.70;;;8.30;99.90;;;;;;4964858;28;20457;-72
2023/01/12 03:52:04;;;;;;;4.35;1.90;;;8.30;99.90;;;;;;4964324;28;20443;-71
2023/01/12 03:54:32;;;;;;;1.90;1.40;;;8.30;99.90;;;;;;4962908;28;21300;-71
2023/01/12 03:57:01;;;;;;;4.75;1.60;;;8.30;99.90;;;;;;4962957;28;20418;-73
2023/01/12 03:59:28;;;;;;;3.25;1.30;;;8.30;99.90;;;;;;4965072;28;20912;-72
2023/01/12 04:01:55;;;;;;;4.07;1.40;;;8.40;99.90;;;;;;4965717;28;21128;-72
2023/01/12 04:04:22;;;;;;;3.30;1.27;;;8.50;99.90;;;;;;4962385;28;21006;-69
2023/01/12 04:06:50;;;;;;;4.10;1.40;;;8.50;99.90;;;;;;4971391;28;20424;-71
2023/01/12 04:09:17;;;;;;;4.07;1.20;;;8.50;99.90;;;;;;4963922;28;20444;-69
2023/01/12 04:14:28;;;;;;;3.67;1.30;;;8.40;99.90;;;;;;4964121;28;22538;-72
2023/01/12 04:16:55;;;;;;;2.70;1.20;;;8.60;99.90;;;;;;4968118;28;21334;-72
2023/01/12 04:19:22;;;;;;;3.90;1.90;;;8.60;99.90;;;;;;4967134;28;21367;-70
2023/01/12 04:24:34;;;;;;;3.40;1.20;;;8.60;99.90;;;;;;4962791;28;20458;-71
2023/01/12 04:27:01;;;;;;;3.28;1.30;;;8.60;99.90;;;;;;4967229;28;20429;-71
2023/01/12 04:29:28;;;;;;;2.58;1.30;;;8.70;99.90;;;;;;4966663;28;20420;-70
2023/01/12 04:31:55;;;;;;;3.20;1.30;;;8.70;99.90;;;;;;4965862;28;21744;-70
2023/01/12 04:34:23;;;;;;;3.70;1.30;;;8.70;99.90;;;;;;4968102;28;20889;-68
2023/01/12 04:36:51;;;;;;;2.80;1.17;;;8.70;99.90;;;;;;4970400;28;20468;-74
2023/01/12 04:39:18;;;;;;;3.35;1.23;;;8.70;99.90;;;;;;4967857;28;20444;-72
2023/01/12 04:41:44;;;;;;;2.50;1.00;;;8.70;99.90;;;;;;4969927;28;20902;-72
2023/01/12 04:44:11;;;;;;;3.22;1.23;;;8.70;99.90;;;;;;4967742;28;20436;-69
2023/01/12 04:46:38;;;;;;;3.25;1.00;;;8.70;99.90;;;;;;4969342;28;20609;-73
2023/01/12 04:49:04;;;;;;;2.40;1.10;;;8.70;99.90;;;;;;4970165;28;20433;-71
2023/01/12 04:51:31;;;;;;;4.38;1.50;;;8.80;99.90;;;;;;4970069;28;20436;-70
2023/01/12 04:53:59;;;;;;;2.57;1.10;;;8.70;99.90;;;;;;4972867;28;20970;-69
2023/01/12 04:56:26;;;;;;;1.85;1.00;;;8.70;99.90;;;;;;4968874;28;20448;-71
2023/01/12 04:58:58;;;;;;;4.85;1.27;;;8.70;99.90;;;;;;4973430;28;20436;-71
2023/01/12 05:01:25;;;;;;;2.20;1.10;;;8.60;99.90;;;;;;4981315;28;20436;-72
2023/01/12 05:03:54;;;;;;;1.63;0.98;;;8.50;99.90;;;;;;4976722;28;20449;-72
2023/01/12 05:06:21;;;;;;;2.60;1.10;;;8.50;99.90;;;;;;4980436;28;20430;-71
2023/01/12 05:11:35;;;;;;;3.08;0.80;;;8.40;99.90;;;;;;4957172;28;20442;-71
2023/01/12 05:14:02;;;;;;;1.40;0.70;;;8.30;99.90;;;;;;4969320;28;20438;-70
2023/01/12 05:16:29;;;;;;;2.40;0.95;;;8.30;99.90;;;;;;4974389;28;20449;-70
2023/01/12 05:18:56;;;;;;;1.30;0.73;;;8.20;99.90;;;;;;4981436;28;20825;-70
2023/01/12 05:21:24;;;;;;;2.30;0.80;;;8.30;99.90;;;;;;4979529;28;20434;-70
2023/01/12 05:23:52;;;;;;;3.22;1.25;;;8.30;99.90;;;;;;4976944;28;20438;-72
2023/01/12 05:26:19;;;;;;;2.17;1.00;;;8.20;99.90;;;;;;4977752;28;20430;-72
2023/01/12 05:28:49;;;;;;;1.90;0.80;;;8.20;99.90;;;;;;4978920;28;20452;-72
2023/01/12 05:31:15;;;;;;;1.90;0.90;;;8.20;99.90;;;;;;4978363;28;20471;-71
2023/01/12 05:33:42;;;;;;;2.20;1.10;;;8.20;99.90;;;;;;4977887;28;20813;-71
2023/01/12 05:36:11;;;;;;;2.50;0.80;;;8.10;99.90;;;;;;4978629;28;20422;-70
2023/01/12 05:38:38;;;;;;;2.13;1.00;;;8.10;99.90;;;;;;4978360;28;20430;-70
2023/01/12 05:41:08;;;;;;;2.33;0.90;;;8.10;99.90;;;;;;4991258;28;20438;-70
2023/01/12 05:43:50;;;;;;;2.50;0.90;;;8.00;99.90;;;;;;4982156;28;20440;-70
2023/01/12 05:46:20;;;;;;;2.28;0.93;;;8.00;99.90;;;;;;4987161;28;20568;-69
2023/01/12 05:48:46;;;;;;;3.13;1.00;;;8.00;99.90;;;;;;4988450;28;20476;-69
2023/01/12 05:51:14;;;;;;;1.90;0.80;;;8.00;99.90;;;;;;4982416;28;20927;-71
2023/01/12 05:53:41;;;;;;;2.90;0.95;;;7.90;99.90;;;;;;4980027;28;20438;-68
2023/01/12 05:56:11;;;;;;;2.15;0.90;;;7.90;99.90;;;;;;4980767;28;20967;-68
2023/01/12 05:58:37;;;;;;;1.80;0.90;;;7.90;99.90;;;;;;4991720;28;20445;-76
2023/01/12 06:01:08;;;;;;;2.60;1.10;;;7.90;99.90;;;;;;4988405;28;20435;-72
2023/01/12 06:03:37;;;;;;;2.90;0.80;;;7.90;99.90;;;;;;4986883;28;20445;-72
2023/01/12 06:06:04;;;;;;;2.10;0.80;;;7.90;99.90;;;;;;4985385;28;20538;-72
2023/01/12 06:08:31;;;;;;;3.40;0.90;;;7.90;99.90;;;;;;4985119;28;20449;-72
2023/01/12 06:11:01;;;;;;;2.30;0.80;;;7.90;99.90;;;;;;4987062;28;20445;-71
2023/01/12 06:16:11;;;;;;;1.60;0.80;;;7.90;99.90;;;;;;4983744;28;20437;-69
2023/01/12 06:18:40;;;;;;;2.67;1.20;;;7.90;99.90;;;;;;4990337;28;20861;-70
2023/01/12 06:21:08;;;;;;;3.35;0.90;;;7.90;99.90;;;;;;4984072;28;20984;-71
2023/01/12 06:23:35;;;;;;;2.30;0.90;;;7.90;99.90;;;;;;4985416;28;20462;-72
2023/01/12 06:26:03;;;;;;;1.40;0.70;;;7.90;99.90;;;;;;4989296;28;20443;-71
2023/01/12 06:28:30;;;;;;;2.10;0.98;;;7.90;99.90;;;;;;4985563;28;20452;-71
2023/01/12 06:30:58;;;;;;;1.95;0.73;;;7.90;99.90;;;;;;4983556;28;20449;-70
2023/01/12 06:33:25;;;;;;;2.30;1.00;;;7.90;99.90;;;;;;4984979;28;20438;-71
2023/01/12 06:35:54;;;;;;;2.00;0.70;;;7.90;99.90;;;;;;4984479;28;20526;-71
2023/01/12 06:38:22;;;;;;;1.40;0.60;;;7.90;99.90;;;;;;4987927;28;20445;-71
2023/01/12 06:40:49;;;;;;;1.77;0.80;;;7.90;99.90;;;;;;4985705;28;20438;-69
2023/01/12 06:43:18;;;;;;;0.80;0.60;;;7.90;99.90;;;;;;4986210;28;20457;-70
2023/01/12 06:45:45;;;;;;;1.35;0.93;;;7.90;99.90;;;;;;4990841;28;20437;-72
2023/01/12 06:48:12;;;;;;;3.35;1.00;;;7.90;99.90;;;;;;4981718;28;20442;-72
2023/01/12 06:50:40;;;;;;;2.50;1.48;;;7.90;99.90;;;;;;4981624;28;20449;-71
2023/01/12 06:53:09;;;;;;;3.50;1.50;;;7.90;99.90;;;;;;4983390;28;20522;-71
2023/01/12 06:55:36;;;;;;;3.67;1.60;;;7.90;99.90;;;;;;4984915;28;20448;-71
2023/01/12 06:58:03;;;;;;;2.47;0.80;;;7.90;99.90;;;;;;4988285;28;20464;-71
2023/01/12 07:00:30;;;;;;;2.72;1.70;;;7.90;99.90;;;;;;4982619;28;20520;-70
2023/01/12 07:02:58;;;;;;;2.50;1.30;;;7.90;99.90;;;;;;4993355;28;20494;-71
2023/01/12 07:05:25;;;;;;;2.28;1.20;;;7.90;99.90;;;;;;4991970;28;20434;-70
2023/01/12 07:07:59;;;;;;;1.73;1.05;;;7.90;99.90;;;;;;4986487;28;20441;-70
2023/01/12 07:10:27;;;;;;;3.33;1.92;;;7.90;99.90;;;;;;4985163;28;20447;-69
2023/01/12 07:12:54;;;;;;;2.00;1.48;;;7.90;99.90;;;;;;4988118;28;20443;-70
2023/01/12 07:15:20;;;;;;;4.05;2.50;;;7.90;99.90;;;;;;4985368;28;20426;-72
2023/01/12 07:17:47;;;;;;;4.03;1.40;;;7.90;99.90;;;;;;4983901;28;20459;-71
2023/01/12 07:20:14;;;;;;;2.95;1.15;;;7.90;99.90;;;;;;4986580;28;20442;-71
2023/01/12 07:22:41;;;;;;;2.10;1.00;;;7.90;99.90;;;;;;4986634;28;20438;-70
2023/01/12 07:25:08;;;;;;;2.05;1.00;;;7.90;99.90;;;;;;4988020;28;20450;-71
2023/01/12 07:27:36;;;;;;;3.13;1.30;;;7.90;99.90;;;;;;4985492;28;20449;-71
2023/01/12 07:30:04;;;;;;;2.60;1.20;;;7.90;99.90;;;;;;4983134;28;20434;-71
2023/01/12 07:32:31;;;;;;;1.52;1.10;;;8.00;99.90;;;;;;4985681;28;20434;-70
2023/01/12 07:34:57;;;;;;;3.30;1.10;;;8.00;99.90;;;;;;4984633;28;20456;-71
2023/01/12 07:37:24;;;;;;;4.13;1.20;;;8.00;99.90;;;;;;4988753;28;20437;-70
2023/01/12 07:39:51;;;;;;;4.65;1.20;;;8.00;99.90;;;;;;4986809;28;20841;-70
2023/01/12 07:42:23;;;;;;;2.22;1.20;;;8.00;99.90;;;;;;4985462;28;20794;-71
2023/01/12 07:44:52;;;;;;;4.30;1.67;;;8.10;99.90;;;;;;4982193;28;21034;-70
2023/01/12 07:47:19;;;;;;;3.80;1.50;;;8.20;99.90;;;;;;4985978;28;20908;-72
2023/01/12 07:49:54;;;;;;;3.17;1.50;;;8.20;99.90;;;;;;4984989;28;20447;-71
2023/01/12 07:52:21;;;;;;;3.80;1.50;;;8.30;99.90;;;;;;4986699;28;20449;-67
2023/01/12 07:54:48;;;;;;;4.73;1.30;;;8.30;99.90;;;;;;4986451;28;20437;-69
2023/01/12 07:57:14;;;;;;;4.82;1.50;;;8.40;99.90;;;;;;4985505;28;20437;-69
2023/01/12 07:59:41;;;;;;;3.67;1.40;;;8.40;99.90;;;;;;4984012;28;20438;-69
2023/01/12 08:02:15;;;;;;;3.22;1.42;;;8.50;99.90;;;;;;4980974;28;20442;-71
2023/01/12 08:04:44;;;;;;;5.13;1.20;;;8.60;99.90;;;;;;4981929;28;21015;-69
2023/01/12 08:07:11;;;;;;;3.08;1.40;;;8.60;99.90;;;;;;4986767;28;20442;-69
2023/01/12 08:09:38;;;;;;;2.78;1.10;;;8.60;99.90;;;;;;4989983;28;20422;-70
2023/01/12 08:12:07;;;;;;;2.40;1.20;;;8.60;99.90;;;;;;4987160;28;20436;-70
2023/01/12 08:14:36;;;;;;;2.30;0.90;;;8.60;99.90;;;;;;4988697;28;20437;-71
2023/01/12 08:17:07;;;;;;;2.45;0.80;;;8.80;99.90;;;;;;4984701;28;20469;-72
2023/01/12 08:19:39;;;;;;;2.50;1.10;;;8.90;99.90;;;;;;4984400;28;20479;-71
2023/01/12 08:22:14;;;;;;;2.00;1.00;;;8.90;99.90;;;;;;4987918;28;20602;-71
2023/01/12 08:24:44;;;;;;;3.15;0.90;;;8.90;99.90;;;;;;4991542;28;20470;-69
2023/01/12 08:27:11;;;;;;;1.80;0.70;;;8.90;99.90;;;;;;4987290;28;20430;-70
2023/01/12 08:29:42;;;;;;;3.08;0.85;;;8.90;99.90;;;;;;4986849;28;20994;-71
2023/01/12 08:32:11;;;;;;;2.13;0.87;;;8.90;99.90;;;;;;4981842;28;20433;-71
2023/01/12 08:34:44;;;;;;;2.45;0.75;;;9.00;99.90;;;;;;4988683;28;20786;-72
2023/01/12 08:37:16;;;;;;;1.38;0.73;;;9.00;99.90;;;;;;4989502;28;20438;-70
2023/01/12 08:39:43;;;;;;;1.85;0.88;;;9.00;99.90;;;;;;4991148;28;20430;-71
2023/01/12 08:42:10;;;;;;;2.92;0.80;;;9.10;99.90;;;;;;4985550;28;20430;-71
2023/01/12 08:44:37;;;;;;;1.35;0.60;;;9.10;99.90;;;;;;4988651;28;20438;-71
2023/01/12 08:47:05;;;;;;;1.90;0.80;;;9.10;99.90;;;;;;4985904;28;20438;-71
2023/01/12 08:49:33;;;;;;;2.60;0.90;;;9.10;99.90;;;;;;4985967;28;20445;-72
2023/01/12 08:52:02;;;;;;;1.90;0.60;;;9.10;99.90;;;;;;4985764;28;20446;-72
2023/01/12 08:54:29;;;;;;;2.00;1.30;;;9.10;99.90;;;;;;4985069;28;20436;-72
2023/01/12 08:56:56;;;;;;;2.42;0.80;;;9.20;99.90;;;;;;4981853;28;20441;-73
2023/01/12 08:59:24;;;;;;;1.03;0.53;;;9.10;99.90;;;;;;4984621;28;20442;-73
2023/01/12 09:01:51;;;;;;;2.72;1.00;;;9.10;99.90;;;;;;4987107;28;20470;-72
2023/01/12 09:04:17;;;;;;;1.15;0.50;;;9.20;99.90;;;;;;4989455;28;20430;-69
2023/01/12 09:06:46;;;;;;;1.60;0.60;;;9.20;99.90;;;;;;4986437;28;20445;-72
2023/01/12 09:09:17;;;;;;;1.05;0.50;;;9.30;99.90;;;;;;4988369;28;20533;-69
2023/01/12 09:11:44;;;;;;;2.35;0.70;;;9.30;99.90;;;;;;4986239;28;20438;-71
2023/01/12 09:14:13;;;;;;;2.20;0.60;;;9.30;99.90;;;;;;4987137;28;20428;-72
2023/01/12 09:16:43;;;;;;;2.40;0.60;;;9.40;99.90;;;;;;4987804;28;20440;-72
2023/01/12 09:19:10;;;;;;;1.70;0.90;;;9.40;99.90;;;;;;4983052;28;20916;-73
2023/01/12 09:21:38;;;;;;;1.00;0.50;;;9.40;99.90;;;;;;4988860;28;20805;-72
2023/01/12 09:24:06;;;;;;;0.90;0.40;;;9.50;99.90;;;;;;4981601;28;20940;-71
2023/01/12 09:26:38;;;;;;;0.70;0.40;;;9.50;99.90;;;;;;4987748;28;20523;-69
2023/01/12 09:29:06;;;;;;;0.93;0.50;;;9.50;99.90;;;;;;4991091;28;20432;-71
2023/01/12 09:31:35;;;;;;;1.60;0.57;;;9.50;99.90;;;;;;4981555;28;21183;-72
2023/01/12 09:34:02;;;;;;;1.33;0.60;;;9.50;99.90;;;;;;4981871;28;20430;-71
2023/01/12 09:36:30;;;;;;;0.80;0.50;;;9.50;99.90;;;;;;4979297;28;20442;-71
2023/01/12 09:38:58;;;;;;;2.20;0.60;;;9.50;99.90;;;;;;4980823;28;20432;-70
2023/01/12 09:47:07;;;;;;;0.90;0.50;;;9.60;99.90;;;;;;4989602;28;20903;-72
2023/01/12 09:49:39;;;;;;;1.60;0.50;;;9.60;99.90;;;;;;4987594;28;20448;-71
2023/01/12 09:52:14;;;;;;;1.45;0.50;;;9.60;99.90;;;;;;4993997;28;20414;-72
2023/01/12 09:54:42;;;;;;;0.80;0.50;;;9.60;99.90;;;;;;4990606;28;20438;-71
2023/01/12 09:57:20;;;;;;;1.50;0.50;;;9.60;99.90;;;;;;4991844;28;20438;-72
2023/01/12 09:59:56;;;;;;;1.00;0.40;;;9.60;99.90;;;;;;4988358;28;20442;-72
2023/01/12 10:02:24;;;;;;;2.13;0.60;;;9.70;99.90;;;;;;4979867;28;20438;-71
2023/01/12 10:04:54;;;;;;;3.17;0.70;;;9.70;99.90;;;;;;4984000;28;20438;-72
2023/01/12 10:07:21;;;;;;;1.25;0.70;;;9.70;99.90;;;;;;4989960;28;20435;-70
2023/01/12 10:09:49;;;;;;;1.65;0.60;;;9.70;99.90;;;;;;4990316;28;20442;-71
2023/01/12 10:12:22;;;;;;;1.60;0.60;;;9.70;99.90;;;;;;4983219;28;20438;-71
2023/01/12 10:15:28;;;;;;;3.30;0.80;;;9.70;99.90;;;;;;4983797;28;20435;-72
2023/01/12 10:18:02;;;;;;;1.05;0.45;;;9.70;99.90;;;;;;4974249;28;20441;-72
2023/01/12 10:20:36;;;;;;;1.25;0.50;;;9.70;99.90;;;;;;4987019;28;20438;-73
2023/01/12 10:23:13;;;;;;;2.25;0.80;;;9.80;99.90;;;;;;4980596;28;20444;-73
2023/01/12 10:25:43;;;;;;;1.80;0.50;;;9.70;99.90;;;;;;4985117;28;20522;-72
2023/01/12 10:28:16;;;;;;;1.80;0.70;;;9.80;99.90;;;;;;4985139;28;20434;-73
2023/01/12 10:30:43;;;;;;;1.90;0.70;;;9.80;99.90;;;;;;4988667;28;20438;-70
2023/01/12 10:33:15;;;;;;;2.10;0.60;;;9.80;99.90;;;;;;4985761;28;20438;-72
2023/01/12 10:35:51;;;;;;;1.60;0.57;;;9.80;99.90;;;;;;4983385;28;20429;-73
2023/01/12 10:38:27;;;;;;;1.27;0.50;;;9.80;99.90;;;;;;4984546;28;20505;-72
2023/01/12 10:41:13;;;;;;;2.40;0.90;;;9.80;99.90;;;;;;4988183;28;20445;-71
2023/01/12 10:43:41;;;;;;;3.67;0.88;;;9.90;99.90;;;;;;4981800;28;22277;-72
2023/01/12 10:46:11;;;;;;;1.38;0.40;;;9.90;99.90;;;;;;4985368;28;20438;-71
2023/01/12 10:48:42;;;;;;;1.27;0.50;;;10.00;99.90;;;;;;4987790;28;20455;-71
2023/01/12 10:51:23;;;;;;;1.27;0.55;;;10.10;99.90;;;;;;4985651;28;20442;-71
2023/01/12 10:53:54;;;;;;;1.60;0.50;;;10.10;99.90;;;;;;4981833;28;20448;-70
2023/01/12 10:56:29;;;;;;;2.10;0.70;;;10.30;99.90;;;;;;4984252;28;20449;-72
2023/01/12 10:58:59;;;;;;;1.70;0.60;;;10.40;99.90;;;;;;4988678;28;20449;-71
2023/01/12 11:01:42;;;;;;;1.65;0.50;;;10.40;99.90;;;;;;4981388;28;20438;-71
2023/01/12 11:04:12;;;;;;;1.70;0.50;;;10.50;99.90;;;;;;4987403;28;20456;-70
2023/01/12 11:06:42;;;;;;;2.10;0.50;;;10.50;99.90;;;;;;4991077;28;20446;-70
2023/01/12 11:09:23;;;;;;;0.60;0.40;;;10.40;99.90;;;;;;4989536;28;20438;-72
2023/01/12 11:11:54;;;;;;;1.67;0.50;;;10.40;99.90;;;;;;4985939;28;20868;-71
2023/01/12 11:14:26;;;;;;;0.82;0.43;;;10.30;99.90;;;;;;4990248;28;20497;-73
2023/01/12 11:16:53;;;;;;;1.90;0.63;;;10.40;99.90;;;;;;4991637;28;20434;-70
2023/01/12 11:19:26;;;;;;;1.55;0.90;;;10.40;99.90;;;;;;4997077;28;20442;-70
2023/01/12 11:21:58;;;;;;;1.00;0.60;;;10.50;99.90;;;;;;4992306;28;20440;-71
2023/01/12 11:24:34;;;;;;;0.80;0.40;;;10.50;99.90;;;;;;4994990;28;20434;-71
2023/01/12 11:27:08;;;;;;;2.10;0.50;;;10.50;99.90;;;;;;4990000;28;20449;-70
2023/01/12 11:29:41;;;;;;;1.00;0.50;;;10.60;99.90;;;;;;4992284;28;20452;-72
2023/01/12 11:32:15;;;;;;;1.40;0.50;;;10.70;99.90;;;;;;4987425;28;20473;-72
2023/01/12 11:34:58;;;;;;;1.90;0.60;;;10.80;99.90;;;;;;4990469;28;20438;-71
2023/01/12 11:37:25;;;;;;;1.13;0.50;;;10.80;99.90;;;;;;4973428;28;20447;-70
2023/01/12 11:40:01;;;;;;;1.13;0.50;;;10.90;99.90;;;;;;4988849;28;20442;-71
2023/01/12 11:45:20;;;;;;;1.47;0.57;;;11.00;99.90;;;;;;4985872;28;20565;-73
2023/01/12 11:47:52;;;;;;;1.17;0.50;;;11.00;99.60;;;;;;4987748;28;20429;-70
2023/01/12 11:50:24;;;;;;;0.70;0.50;;;11.00;99.90;;;;;;4984588;28;20461;-71
2023/01/12 11:52:52;;;;;;;1.27;0.57;;;11.00;99.70;;;;;;4988821;28;20440;-70
2023/01/12 11:55:32;;;;;;;2.25;0.68;;;11.00;99.60;;;;;;4989839;28;20868;-71
2023/01/12 11:58:07;;;;;;;1.60;0.50;;;11.10;99.00;;;;;;4993509;28;21016;-71
2023/01/12 12:00:46;;;;;;;2.20;0.60;;;11.10;99.00;;;;;;4990092;28;20484;-71
2023/01/12 12:03:38;;;;;;;1.90;0.60;;;11.20;98.60;;;;;;4988482;28;20547;-71
2023/01/12 12:06:21;;;;;;;1.25;0.77;;;11.20;98.60;;;;;;4991592;28;20437;-71
2023/01/12 12:08:57;;;;;;;1.67;0.80;;;11.20;99.20;;;;;;4990702;28;20453;-71
2023/01/12 12:11:32;;;;;;;1.52;0.60;;;11.00;99.90;;;;;;4986162;28;20445;-72
2023/01/12 12:14:10;;;;;;;1.30;0.57;;;10.80;99.90;;;;;;4985881;28;20456;-71
2023/01/12 12:16:46;;;;;;;1.58;0.60;;;10.70;99.90;;;;;;4991760;28;20521;-69
2023/01/12 12:19:27;;;;;;;3.60;0.80;;;10.50;99.90;;;;;;4989314;28;20422;-69
2023/01/12 12:22:06;;;;;;;1.38;0.60;;;10.40;99.90;;;;;;4988213;28;20457;-71
2023/01/12 12:25:03;;;;;;;1.47;0.50;;;10.40;99.90;;;;;;4984715;28;20904;-72
2023/01/12 12:27:47;;;;;;;0.90;0.40;;;10.40;99.90;;;;;;4992994;28;20474;-71
2023/01/12 12:30:44;;;;;;;1.60;0.50;;;10.30;99.90;;;;;;4984037;28;20430;-71
2023/01/12 12:33:21;;;;;;;1.30;0.60;;;10.30;99.90;;;;;;4992850;28;20434;-72
2023/01/12 12:36:06;;;;;;;1.20;0.85;;;10.20;99.90;;;;;;4993745;28;20435;-72
2023/01/12 12:38:49;;;;;;;1.60;0.60;;;10.20;99.90;;;;;;4987171;28;21118;-71
2023/01/12 12:47:33;;;;;;;1.77;0.80;;;10.10;99.90;;;;;;4985078;28;20577;-73
2023/01/12 12:50:02;;;;;;;1.10;0.60;;;10.20;99.90;;;;;;4992029;28;20453;-73
2023/01/12 12:52:30;;;;;;;1.65;0.57;;;10.20;99.90;;;;;;4987956;28;20434;-73
2023/01/12 12:54:59;;;;;;;2.30;0.60;;;10.20;99.90;;;;;;4988395;28;20461;-72
2023/01/12 12:57:25;;;;;;;0.80;0.40;;;10.20;99.90;;;;;;4984026;28;20441;-73
2023/01/12 12:59:56;;;;;;;1.38;0.50;;;10.20;99.90;;;;;;4993594;28;20423;-73
2023/01/12 13:02:38;;;;;;;2.25;0.70;;;10.10;99.90;;;;;;4987447;28;20446;-72
2023/01/12 13:05:07;;;;;;;1.50;0.60;;;10.10;99.90;;;;;;4989291;28;20419;-71
2023/01/12 13:07:41;;;;;;;0.90;0.40;;;10.10;99.90;;;;;;4988091;28;20470;-70
2023/01/12 13:10:22;;;;;;;1.20;0.50;;;10.10;99.90;;;;;;4988725;28;21160;-70
2023/01/12 13:12:58;;;;;;;1.08;0.52;;;10.10;99.90;;;;;;4989175;28;20820;-72
2023/01/12 13:15:34;;;;;;;1.50;0.50;;;10.10;99.90;;;;;;4988936;28;20471;-71
2023/01/12 13:18:02;;;;;;;2.20;0.50;;;10.10;99.90;;;;;;4982037;28;20466;-71
2023/01/12 13:20:54;;;;;;;1.00;0.60;;;10.10;99.90;;;;;;4988886;28;20457;-71
2023/01/12 13:23:47;;;;;;;1.38;0.70;;;10.10;99.90;;;;;;4981149;28;20433;-72
2023/01/12 13:26:46;;;;;;;1.50;0.60;;;10.10;99.90;;;;;;4982713;28;20439;-70
2023/01/12 13:29:38;;;;;;;0.95;0.50;;;10.10;99.90;;;;;;4991532;28;20438;-71
2023/01/12 13:32:35;;;;;;;1.50;0.50;;;10.20;99.90;;;;;;4983462;28;20434;-72
2023/01/12 13:35:02;;;;;;;0.90;0.50;;;10.20;99.90;;;;;;4993893;28;20444;-72
2023/01/12 13:37:43;;;;;;;1.85;0.70;;;10.10;99.90;;;;;;4981117;28;20442;-73
2023/01/12 13:40:18;;;;;;;1.30;0.50;;;10.10;99.90;;;;;;4986357;28;20450;-73
2023/01/12 13:45:33;;;;;;;0.90;0.70;;;10.20;99.90;;;;;;4984393;28;20429;-70
2023/01/12 13:48:00;;;;;;;2.37;1.10;;;10.30;99.90;;;;;;4992268;28;20487;-71
2023/01/12 13:50:28;;;;;;;0.90;0.50;;;10.30;99.90;;;;;;4986908;28;21019;-70
2023/01/12 13:52:59;;;;;;;1.10;0.50;;;10.40;99.90;;;;;;4981167;28;20442;-70